sensor_id;sensor_type;location;lat;lon;timestamp;P1;durP1;ratioP1;P2;durP2;ratioP2
62435;SDS011;48480;50.252;18.848;2022-10-31T00:01:44;19.40;;;12.10;;
62435;SDS011;48480;50.252;18.848;2022-10-31T00:04:10;21.00;;;12.10;;
62435;SDS011;48480;50.252;18.848;2022-10-31T00:06:41;21.00;;;13.10;;
62435;SDS011;48480;50.252;18.848;2022-10-31T00:09:12;18.80;;;12.40;;
62435;SDS011;48480;50.252;18.848;2022-10-31T00:11:38;18.90;;;13.00;;
62435;SDS011;48480;50.252;18.848;2022-10-31T00:14:04;19.40;;;13.20;;
62435;SDS011;48480;50.252;18.848;2022-10-31T00:16:30;19.00;;;12.70;;
62435;SDS011;48480;50.252;18.848;2022-10-31T00:18:57;20.30;;;11.60;;
62435;SDS011;48480;50.252;18.848;2022-10-31T00:21:25;19.30;;;12.00;;
62435;SDS011;48480;50.252;18.848;2022-10-31T00:23:58;20.60;;;12.30;;
62435;SDS011;48480;50.252;18.848;2022-10-31T00:26:36;17.90;;;11.40;;
62435;SDS011;48480;50.252;18.848;2022-10-31T00:29:02;19.00;;;11.40;;
62435;SDS011;48480;50.252;18.848;2022-10-31T00:31:33;18.40;;;10.90;;
62435;SDS011;48480;50.252;18.848;2022-10-31T00:34:07;18.30;;;11.60;;
62435;SDS011;48480;50.252;18.848;2022-10-31T00:36:32;15.80;;;10.70;;
62435;SDS011;48480;50.252;18.848;2022-10-31T00:38:58;16.20;;;11.10;;
62435;SDS011;48480;50.252;18.848;2022-10-31T00:41:24;18.20;;;11.00;;
62435;SDS011;48480;50.252;18.848;2022-10-31T00:43:49;15.90;;;10.80;;
62435;SDS011;48480;50.252;18.848;2022-10-31T00:46:15;18.50;;;11.00;;
62435;SDS011;48480;50.252;18.848;2022-10-31T00:48:41;16.50;;;10.50;;
62435;SDS011;48480;50.252;18.848;2022-10-31T00:51:07;16.40;;;10.30;;
62435;SDS011;48480;50.252;18.848;2022-10-31T00:53:34;14.90;;;9.80;;
62435;SDS011;48480;50.252;18.848;2022-10-31T00:56:00;16.80;;;10.90;;
62435;SDS011;48480;50.252;18.848;2022-10-31T00:58:28;15.90;;;10.70;;
62435;SDS011;48480;50.252;18.848;2022-10-31T01:00:54;19.90;;;10.90;;
62435;SDS011;48480;50.252;18.848;2022-10-31T01:03:21;18.50;;;10.00;;
62435;SDS011;48480;50.252;18.848;2022-10-31T01:05:55;16.80;;;9.70;;
62435;SDS011;48480;50.252;18.848;2022-10-31T01:08:28;17.80;;;10.10;;
62435;SDS011;48480;50.252;18.848;2022-10-31T01:10:58;16.10;;;10.70;;
62435;SDS011;48480;50.252;18.848;2022-10-31T01:13:34;14.60;;;9.20;;
62435;SDS011;48480;50.252;18.848;2022-10-31T01:16:00;15.00;;;9.30;;
62435;SDS011;48480;50.252;18.848;2022-10-31T01:18:26;14.50;;;9.80;;
62435;SDS011;48480;50.252;18.848;2022-10-31T01:21:09;15.80;;;9.30;;
62435;SDS011;48480;50.252;18.848;2022-10-31T01:23:44;14.80;;;9.30;;
62435;SDS011;48480;50.252;18.848;2022-10-31T01:26:12;16.50;;;10.00;;
62435;SDS011;48480;50.252;18.848;2022-10-31T01:29:00;16.10;;;10.00;;
62435;SDS011;48480;50.252;18.848;2022-10-31T01:31:29;14.40;;;9.20;;
62435;SDS011;48480;50.252;18.848;2022-10-31T01:33:57;16.00;;;9.80;;
62435;SDS011;48480;50.252;18.848;2022-10-31T01:36:34;15.70;;;10.30;;
62435;SDS011;48480;50.252;18.848;2022-10-31T01:39:03;18.70;;;10.20;;
62435;SDS011;48480;50.252;18.848;2022-10-31T01:41:37;13.20;;;9.70;;
62435;SDS011;48480;50.252;18.848;2022-10-31T01:46:48;15.40;;;9.20;;
62435;SDS011;48480;50.252;18.848;2022-10-31T01:51:58;14.70;;;9.90;;
62435;SDS011;48480;50.252;18.848;2022-10-31T01:54:31;19.00;;;10.10;;
62435;SDS011;48480;50.252;18.848;2022-10-31T01:57:00;15.90;;;10.10;;
62435;SDS011;48480;50.252;18.848;2022-10-31T01:59:36;14.50;;;9.20;;
62435;SDS011;48480;50.252;18.848;2022-10-31T02:02:13;15.30;;;9.40;;
62435;SDS011;48480;50.252;18.848;2022-10-31T02:04:42;16.20;;;8.70;;
62435;SDS011;48480;50.252;18.848;2022-10-31T02:07:10;15.80;;;9.40;;
62435;SDS011;48480;50.252;18.848;2022-10-31T02:09:45;15.50;;;8.90;;
62435;SDS011;48480;50.252;18.848;2022-10-31T02:12:13;17.70;;;9.40;;
62435;SDS011;48480;50.252;18.848;2022-10-31T02:14:40;14.40;;;9.30;;
62435;SDS011;48480;50.252;18.848;2022-10-31T02:17:12;14.70;;;9.50;;
62435;SDS011;48480;50.252;18.848;2022-10-31T02:31:31;16.30;;;9.90;;
62435;SDS011;48480;50.252;18.848;2022-10-31T02:33:58;14.20;;;9.70;;
62435;SDS011;48480;50.252;18.848;2022-10-31T02:42:29;12.60;;;9.00;;
62435;SDS011;48480;50.252;18.848;2022-10-31T02:45:19;12.60;;;8.80;;
62435;SDS011;48480;50.252;18.848;2022-10-31T02:47:53;14.70;;;9.30;;
62435;SDS011;48480;50.252;18.848;2022-10-31T02:50:32;13.50;;;9.70;;
62435;SDS011;48480;50.252;18.848;2022-10-31T02:53:00;16.00;;;10.20;;
62435;SDS011;48480;50.252;18.848;2022-10-31T02:58:02;15.90;;;10.00;;
62435;SDS011;48480;50.252;18.848;2022-10-31T03:00:47;15.70;;;8.50;;
62435;SDS011;48480;50.252;18.848;2022-10-31T03:03:47;16.40;;;9.20;;
62435;SDS011;48480;50.252;18.848;2022-10-31T03:08:57;14.80;;;9.30;;
62435;SDS011;48480;50.252;18.848;2022-10-31T03:11:43;15.20;;;10.10;;
62435;SDS011;48480;50.252;18.848;2022-10-31T03:14:19;16.20;;;9.00;;
62435;SDS011;48480;50.252;18.848;2022-10-31T03:16:50;16.10;;;10.40;;
62435;SDS011;48480;50.252;18.848;2022-10-31T03:21:55;16.90;;;10.10;;
62435;SDS011;48480;50.252;18.848;2022-10-31T03:24:27;19.00;;;10.30;;
62435;SDS011;48480;50.252;18.848;2022-10-31T03:27:05;16.60;;;9.80;;
62435;SDS011;48480;50.252;18.848;2022-10-31T03:29:40;13.90;;;9.60;;
62435;SDS011;48480;50.252;18.848;2022-10-31T03:32:12;18.00;;;10.50;;
62435;SDS011;48480;50.252;18.848;2022-10-31T03:34:46;14.00;;;10.20;;
62435;SDS011;48480;50.252;18.848;2022-10-31T03:37:17;13.70;;;9.90;;
62435;SDS011;48480;50.252;18.848;2022-10-31T03:39:47;19.30;;;11.40;;
62435;SDS011;48480;50.252;18.848;2022-10-31T03:42:25;18.20;;;10.80;;
62435;SDS011;48480;50.252;18.848;2022-10-31T03:45:08;16.50;;;10.30;;
62435;SDS011;48480;50.252;18.848;2022-10-31T03:47:49;15.20;;;9.90;;
62435;SDS011;48480;50.252;18.848;2022-10-31T03:50:29;19.70;;;10.10;;
62435;SDS011;48480;50.252;18.848;2022-10-31T03:53:09;18.50;;;10.30;;
62435;SDS011;48480;50.252;18.848;2022-10-31T03:55:42;17.20;;;10.80;;
62435;SDS011;48480;50.252;18.848;2022-10-31T03:58:21;16.40;;;10.20;;
62435;SDS011;48480;50.252;18.848;2022-10-31T04:00:54;16.70;;;9.80;;
62435;SDS011;48480;50.252;18.848;2022-10-31T04:03:26;14.60;;;11.10;;
62435;SDS011;48480;50.252;18.848;2022-10-31T04:05:56;16.30;;;11.00;;
62435;SDS011;48480;50.252;18.848;2022-10-31T04:08:27;15.90;;;10.60;;
62435;SDS011;48480;50.252;18.848;2022-10-31T04:10:56;16.80;;;10.80;;
62435;SDS011;48480;50.252;18.848;2022-10-31T04:13:27;14.80;;;10.30;;
62435;SDS011;48480;50.252;18.848;2022-10-31T04:15:56;19.70;;;12.00;;
62435;SDS011;48480;50.252;18.848;2022-10-31T04:18:25;17.30;;;11.50;;
62435;SDS011;48480;50.252;18.848;2022-10-31T04:21:00;15.30;;;9.90;;
62435;SDS011;48480;50.252;18.848;2022-10-31T04:23:34;17.10;;;10.90;;
62435;SDS011;48480;50.252;18.848;2022-10-31T04:26:03;15.90;;;11.10;;
62435;SDS011;48480;50.252;18.848;2022-10-31T04:28:29;15.40;;;10.80;;
62435;SDS011;48480;50.252;18.848;2022-10-31T04:31:00;20.80;;;12.20;;
62435;SDS011;48480;50.252;18.848;2022-10-31T04:36:32;18.50;;;12.30;;
62435;SDS011;48480;50.252;18.848;2022-10-31T04:39:03;20.00;;;12.30;;
62435;SDS011;48480;50.252;18.848;2022-10-31T04:41:34;21.10;;;12.20;;
62435;SDS011;48480;50.252;18.848;2022-10-31T04:46:39;20.60;;;11.70;;
62435;SDS011;48480;50.252;18.848;2022-10-31T04:49:22;16.00;;;11.20;;
62435;SDS011;48480;50.252;18.848;2022-10-31T04:51:48;19.60;;;12.00;;
62435;SDS011;48480;50.252;18.848;2022-10-31T04:54:16;18.60;;;11.60;;
62435;SDS011;48480;50.252;18.848;2022-10-31T04:56:42;20.40;;;11.30;;
62435;SDS011;48480;50.252;18.848;2022-10-31T04:59:07;15.40;;;10.90;;
62435;SDS011;48480;50.252;18.848;2022-10-31T05:01:33;15.20;;;11.00;;
62435;SDS011;48480;50.252;18.848;2022-10-31T05:04:04;18.30;;;11.90;;
62435;SDS011;48480;50.252;18.848;2022-10-31T05:06:35;16.60;;;11.80;;
62435;SDS011;48480;50.252;18.848;2022-10-31T05:09:03;16.40;;;11.60;;
62435;SDS011;48480;50.252;18.848;2022-10-31T05:11:31;15.60;;;10.90;;
62435;SDS011;48480;50.252;18.848;2022-10-31T05:13:57;16.00;;;11.90;;
62435;SDS011;48480;50.252;18.848;2022-10-31T05:16:25;17.00;;;11.90;;
62435;SDS011;48480;50.252;18.848;2022-10-31T05:18:52;17.30;;;10.90;;
62435;SDS011;48480;50.252;18.848;2022-10-31T05:21:26;17.70;;;11.50;;
62435;SDS011;48480;50.252;18.848;2022-10-31T05:23:55;21.20;;;10.40;;
62435;SDS011;48480;50.252;18.848;2022-10-31T05:26:24;18.10;;;11.00;;
62435;SDS011;48480;50.252;18.848;2022-10-31T05:28:52;20.00;;;11.40;;
62435;SDS011;48480;50.252;18.848;2022-10-31T05:31:27;17.50;;;11.80;;
62435;SDS011;48480;50.252;18.848;2022-10-31T05:33:55;17.20;;;11.60;;
62435;SDS011;48480;50.252;18.848;2022-10-31T05:36:27;17.90;;;11.80;;
62435;SDS011;48480;50.252;18.848;2022-10-31T05:39:03;17.50;;;11.80;;
62435;SDS011;48480;50.252;18.848;2022-10-31T05:41:29;16.90;;;10.70;;
62435;SDS011;48480;50.252;18.848;2022-10-31T05:43:58;19.10;;;12.00;;
62435;SDS011;48480;50.252;18.848;2022-10-31T05:46:28;15.90;;;10.70;;
62435;SDS011;48480;50.252;18.848;2022-10-31T05:49:09;14.20;;;10.70;;
62435;SDS011;48480;50.252;18.848;2022-10-31T05:51:41;23.60;;;11.90;;
62435;SDS011;48480;50.252;18.848;2022-10-31T05:54:06;19.50;;;11.90;;
62435;SDS011;48480;50.252;18.848;2022-10-31T05:56:49;16.60;;;11.10;;
62435;SDS011;48480;50.252;18.848;2022-10-31T05:59:22;19.80;;;12.00;;
62435;SDS011;48480;50.252;18.848;2022-10-31T06:01:48;19.20;;;11.50;;
62435;SDS011;48480;50.252;18.848;2022-10-31T06:04:22;17.10;;;11.60;;
62435;SDS011;48480;50.252;18.848;2022-10-31T06:06:53;19.80;;;11.70;;
62435;SDS011;48480;50.252;18.848;2022-10-31T06:09:33;14.80;;;10.60;;
62435;SDS011;48480;50.252;18.848;2022-10-31T06:12:10;20.90;;;10.50;;
62435;SDS011;48480;50.252;18.848;2022-10-31T06:14:43;22.40;;;12.00;;
62435;SDS011;48480;50.252;18.848;2022-10-31T06:17:09;17.30;;;11.20;;
62435;SDS011;48480;50.252;18.848;2022-10-31T06:19:35;20.20;;;11.40;;
62435;SDS011;48480;50.252;18.848;2022-10-31T06:22:00;20.10;;;11.90;;
62435;SDS011;48480;50.252;18.848;2022-10-31T06:24:25;19.70;;;10.80;;
62435;SDS011;48480;50.252;18.848;2022-10-31T06:26:51;16.50;;;12.10;;
62435;SDS011;48480;50.252;18.848;2022-10-31T06:29:16;18.50;;;11.90;;
62435;SDS011;48480;50.252;18.848;2022-10-31T06:31:42;17.30;;;12.10;;
62435;SDS011;48480;50.252;18.848;2022-10-31T06:34:07;17.80;;;11.70;;
62435;SDS011;48480;50.252;18.848;2022-10-31T06:36:32;15.80;;;11.40;;
62435;SDS011;48480;50.252;18.848;2022-10-31T06:38:58;19.70;;;11.50;;
62435;SDS011;48480;50.252;18.848;2022-10-31T06:41:24;17.00;;;12.30;;
62435;SDS011;48480;50.252;18.848;2022-10-31T06:43:50;17.70;;;11.90;;
62435;SDS011;48480;50.252;18.848;2022-10-31T06:46:16;23.10;;;12.60;;
62435;SDS011;48480;50.252;18.848;2022-10-31T06:48:45;21.30;;;13.00;;
62435;SDS011;48480;50.252;18.848;2022-10-31T06:54:00;16.60;;;11.80;;
62435;SDS011;48480;50.252;18.848;2022-10-31T06:56:25;19.30;;;12.80;;
62435;SDS011;48480;50.252;18.848;2022-10-31T06:58:51;16.80;;;12.50;;
62435;SDS011;48480;50.252;18.848;2022-10-31T07:01:16;17.30;;;12.50;;
62435;SDS011;48480;50.252;18.848;2022-10-31T07:03:42;21.90;;;12.70;;
62435;SDS011;48480;50.252;18.848;2022-10-31T07:06:10;20.70;;;13.30;;
62435;SDS011;48480;50.252;18.848;2022-10-31T07:08:41;19.00;;;13.70;;
62435;SDS011;48480;50.252;18.848;2022-10-31T07:11:10;28.30;;;13.30;;
62435;SDS011;48480;50.252;18.848;2022-10-31T07:13:44;21.20;;;13.60;;
62435;SDS011;48480;50.252;18.848;2022-10-31T07:16:10;19.40;;;12.70;;
62435;SDS011;48480;50.252;18.848;2022-10-31T07:18:38;21.40;;;13.50;;
62435;SDS011;48480;50.252;18.848;2022-10-31T07:21:03;20.00;;;14.50;;
62435;SDS011;48480;50.252;18.848;2022-10-31T07:23:29;22.10;;;15.60;;
62435;SDS011;48480;50.252;18.848;2022-10-31T07:25:56;28.40;;;15.00;;
62435;SDS011;48480;50.252;18.848;2022-10-31T07:28:22;20.60;;;14.50;;
62435;SDS011;48480;50.252;18.848;2022-10-31T07:30:50;27.10;;;15.20;;
62435;SDS011;48480;50.252;18.848;2022-10-31T07:33:29;22.20;;;14.60;;
62435;SDS011;48480;50.252;18.848;2022-10-31T07:36:00;20.30;;;13.60;;
62435;SDS011;48480;50.252;18.848;2022-10-31T07:38:35;17.80;;;14.00;;
62435;SDS011;48480;50.252;18.848;2022-10-31T07:41:02;21.10;;;14.40;;
62435;SDS011;48480;50.252;18.848;2022-10-31T07:43:34;21.00;;;14.40;;
62435;SDS011;48480;50.252;18.848;2022-10-31T07:46:07;19.10;;;12.60;;
62435;SDS011;48480;50.252;18.848;2022-10-31T07:48:36;17.00;;;11.80;;
62435;SDS011;48480;50.252;18.848;2022-10-31T07:51:02;16.70;;;11.40;;
62435;SDS011;48480;50.252;18.848;2022-10-31T07:53:28;16.10;;;11.70;;
62435;SDS011;48480;50.252;18.848;2022-10-31T07:55:54;18.00;;;11.60;;
62435;SDS011;48480;50.252;18.848;2022-10-31T07:58:20;17.40;;;11.70;;
62435;SDS011;48480;50.252;18.848;2022-10-31T08:00:46;18.30;;;12.00;;
62435;SDS011;48480;50.252;18.848;2022-10-31T08:03:13;17.70;;;12.40;;
62435;SDS011;48480;50.252;18.848;2022-10-31T08:05:41;14.70;;;10.80;;
62435;SDS011;48480;50.252;18.848;2022-10-31T08:08:10;16.40;;;12.30;;
62435;SDS011;48480;50.252;18.848;2022-10-31T08:10:36;16.40;;;12.30;;
62435;SDS011;48480;50.252;18.848;2022-10-31T08:13:10;15.60;;;11.60;;
62435;SDS011;48480;50.252;18.848;2022-10-31T08:15:39;19.00;;;11.70;;
62435;SDS011;48480;50.252;18.848;2022-10-31T08:18:10;18.90;;;12.20;;
62435;SDS011;48480;50.252;18.848;2022-10-31T08:20:38;16.40;;;11.70;;
62435;SDS011;48480;50.252;18.848;2022-10-31T08:23:04;17.10;;;11.30;;
62435;SDS011;48480;50.252;18.848;2022-10-31T08:25:31;17.80;;;11.90;;
62435;SDS011;48480;50.252;18.848;2022-10-31T08:27:57;18.30;;;12.10;;
62435;SDS011;48480;50.252;18.848;2022-10-31T08:30:27;15.00;;;11.90;;
62435;SDS011;48480;50.252;18.848;2022-10-31T08:33:04;16.20;;;11.70;;
62435;SDS011;48480;50.252;18.848;2022-10-31T08:35:34;18.00;;;12.20;;
62435;SDS011;48480;50.252;18.848;2022-10-31T08:38:00;16.30;;;10.60;;
62435;SDS011;48480;50.252;18.848;2022-10-31T08:40:26;16.00;;;11.40;;
62435;SDS011;48480;50.252;18.848;2022-10-31T08:42:57;15.90;;;10.80;;
62435;SDS011;48480;50.252;18.848;2022-10-31T08:45:23;14.20;;;11.10;;
62435;SDS011;48480;50.252;18.848;2022-10-31T08:47:49;15.00;;;10.20;;
62435;SDS011;48480;50.252;18.848;2022-10-31T08:50:14;14.60;;;9.80;;
62435;SDS011;48480;50.252;18.848;2022-10-31T08:52:40;14.70;;;9.70;;
62435;SDS011;48480;50.252;18.848;2022-10-31T08:55:05;15.40;;;9.30;;
62435;SDS011;48480;50.252;18.848;2022-10-31T08:57:31;15.40;;;10.20;;
62435;SDS011;48480;50.252;18.848;2022-10-31T08:59:56;16.80;;;9.00;;
62435;SDS011;48480;50.252;18.848;2022-10-31T09:02:22;15.40;;;10.60;;
62435;SDS011;48480;50.252;18.848;2022-10-31T09:04:47;16.50;;;10.40;;
62435;SDS011;48480;50.252;18.848;2022-10-31T09:07:13;12.50;;;9.10;;
62435;SDS011;48480;50.252;18.848;2022-10-31T09:09:42;15.60;;;11.00;;
62435;SDS011;48480;50.252;18.848;2022-10-31T09:12:07;16.80;;;10.80;;
62435;SDS011;48480;50.252;18.848;2022-10-31T09:14:33;13.70;;;9.60;;
62435;SDS011;48480;50.252;18.848;2022-10-31T09:16:59;14.90;;;10.00;;
62435;SDS011;48480;50.252;18.848;2022-10-31T09:19:24;14.00;;;9.50;;
62435;SDS011;48480;50.252;18.848;2022-10-31T09:21:53;15.90;;;9.70;;
62435;SDS011;48480;50.252;18.848;2022-10-31T09:24:19;14.80;;;9.30;;
62435;SDS011;48480;50.252;18.848;2022-10-31T09:26:45;13.70;;;10.10;;
62435;SDS011;48480;50.252;18.848;2022-10-31T09:29:10;13.20;;;9.50;;
62435;SDS011;48480;50.252;18.848;2022-10-31T09:31:36;13.40;;;9.80;;
62435;SDS011;48480;50.252;18.848;2022-10-31T09:34:01;15.50;;;9.80;;
62435;SDS011;48480;50.252;18.848;2022-10-31T09:36:27;14.90;;;10.10;;
62435;SDS011;48480;50.252;18.848;2022-10-31T09:38:53;17.30;;;11.00;;
62435;SDS011;48480;50.252;18.848;2022-10-31T09:41:19;16.50;;;9.80;;
62435;SDS011;48480;50.252;18.848;2022-10-31T09:44:14;13.10;;;9.60;;
62435;SDS011;48480;50.252;18.848;2022-10-31T09:52:47;13.50;;;8.90;;
62435;SDS011;48480;50.252;18.848;2022-10-31T09:55:29;16.70;;;8.60;;
62435;SDS011;48480;50.252;18.848;2022-10-31T09:58:20;14.80;;;8.80;;
62435;SDS011;48480;50.252;18.848;2022-10-31T10:00:49;14.00;;;8.90;;
62435;SDS011;48480;50.252;18.848;2022-10-31T10:08:40;14.40;;;9.40;;
62435;SDS011;48480;50.252;18.848;2022-10-31T10:11:16;13.50;;;8.10;;
62435;SDS011;48480;50.252;18.848;2022-10-31T10:25:22;14.00;;;8.10;;
62435;SDS011;48480;50.252;18.848;2022-10-31T10:28:07;18.20;;;8.20;;
62435;SDS011;48480;50.252;18.848;2022-10-31T10:36:01;14.40;;;7.90;;
62435;SDS011;48480;50.252;18.848;2022-10-31T10:38:36;11.90;;;8.40;;
62435;SDS011;48480;50.252;18.848;2022-10-31T10:41:12;15.00;;;8.40;;
62435;SDS011;48480;50.252;18.848;2022-10-31T10:43:52;12.50;;;8.00;;
62435;SDS011;48480;50.252;18.848;2022-10-31T10:46:26;15.90;;;8.30;;
62435;SDS011;48480;50.252;18.848;2022-10-31T10:49:28;13.50;;;7.90;;
62435;SDS011;48480;50.252;18.848;2022-10-31T10:51:59;13.90;;;7.30;;
62435;SDS011;48480;50.252;18.848;2022-10-31T10:57:22;15.00;;;8.00;;
62435;SDS011;48480;50.252;18.848;2022-10-31T11:00:02;14.60;;;7.20;;
62435;SDS011;48480;50.252;18.848;2022-10-31T11:02:42;17.70;;;8.20;;
62435;SDS011;48480;50.252;18.848;2022-10-31T11:05:08;12.80;;;7.80;;
62435;SDS011;48480;50.252;18.848;2022-10-31T11:07:48;11.50;;;7.30;;
62435;SDS011;48480;50.252;18.848;2022-10-31T11:10:14;14.10;;;7.00;;
62435;SDS011;48480;50.252;18.848;2022-10-31T11:12:42;11.80;;;7.00;;
62435;SDS011;48480;50.252;18.848;2022-10-31T11:15:20;16.40;;;8.30;;
62435;SDS011;48480;50.252;18.848;2022-10-31T11:17:48;13.30;;;7.30;;
62435;SDS011;48480;50.252;18.848;2022-10-31T11:22:45;18.50;;;7.90;;
62435;SDS011;48480;50.252;18.848;2022-10-31T11:27:44;15.10;;;7.60;;
62435;SDS011;48480;50.252;18.848;2022-10-31T11:30:14;16.00;;;7.20;;
62435;SDS011;48480;50.252;18.848;2022-10-31T11:32:42;12.80;;;7.70;;
62435;SDS011;48480;50.252;18.848;2022-10-31T11:35:14;12.50;;;7.00;;
62435;SDS011;48480;50.252;18.848;2022-10-31T11:37:44;13.80;;;8.00;;
62435;SDS011;48480;50.252;18.848;2022-10-31T11:40:21;13.10;;;8.10;;
62435;SDS011;48480;50.252;18.848;2022-10-31T11:42:49;15.20;;;8.10;;
62435;SDS011;48480;50.252;18.848;2022-10-31T11:45:18;15.80;;;7.80;;
62435;SDS011;48480;50.252;18.848;2022-10-31T11:47:54;12.90;;;7.80;;
62435;SDS011;48480;50.252;18.848;2022-10-31T11:50:23;13.40;;;7.20;;
62435;SDS011;48480;50.252;18.848;2022-10-31T11:52:51;13.00;;;7.80;;
62435;SDS011;48480;50.252;18.848;2022-10-31T11:55:32;17.30;;;8.20;;
62435;SDS011;48480;50.252;18.848;2022-10-31T11:57:59;15.30;;;8.70;;
62435;SDS011;48480;50.252;18.848;2022-10-31T12:00:27;14.50;;;8.50;;
62435;SDS011;48480;50.252;18.848;2022-10-31T12:03:06;16.60;;;9.00;;
62435;SDS011;48480;50.252;18.848;2022-10-31T12:05:39;16.80;;;8.50;;
62435;SDS011;48480;50.252;18.848;2022-10-31T12:08:10;12.70;;;7.90;;
62435;SDS011;48480;50.252;18.848;2022-10-31T12:10:44;16.10;;;8.30;;
62435;SDS011;48480;50.252;18.848;2022-10-31T12:18:59;16.30;;;7.20;;
62435;SDS011;48480;50.252;18.848;2022-10-31T12:24:27;10.80;;;7.80;;
62435;SDS011;48480;50.252;18.848;2022-10-31T12:29:46;15.30;;;7.90;;
62435;SDS011;48480;50.252;18.848;2022-10-31T12:32:32;19.00;;;9.20;;
62435;SDS011;48480;50.252;18.848;2022-10-31T12:43:36;15.00;;;7.80;;
62435;SDS011;48480;50.252;18.848;2022-10-31T12:46:13;14.40;;;7.70;;
62435;SDS011;48480;50.252;18.848;2022-10-31T12:48:59;13.30;;;7.10;;
62435;SDS011;48480;50.252;18.848;2022-10-31T12:51:32;15.40;;;7.70;;
62435;SDS011;48480;50.252;18.848;2022-10-31T12:54:22;18.00;;;7.90;;
62435;SDS011;48480;50.252;18.848;2022-10-31T12:57:13;16.50;;;7.50;;
62435;SDS011;48480;50.252;18.848;2022-10-31T12:59:48;19.90;;;8.20;;
62435;SDS011;48480;50.252;18.848;2022-10-31T13:05:11;15.40;;;7.80;;
62435;SDS011;48480;50.252;18.848;2022-10-31T13:07:52;17.60;;;7.30;;
62435;SDS011;48480;50.252;18.848;2022-10-31T13:10:39;17.40;;;7.70;;
62435;SDS011;48480;50.252;18.848;2022-10-31T13:16:04;16.60;;;7.70;;
62435;SDS011;48480;50.252;18.848;2022-10-31T13:18:33;15.20;;;7.60;;
62435;SDS011;48480;50.252;18.848;2022-10-31T13:21:18;15.80;;;7.80;;
62435;SDS011;48480;50.252;18.848;2022-10-31T13:23:48;22.60;;;8.00;;
62435;SDS011;48480;50.252;18.848;2022-10-31T13:29:05;12.60;;;7.00;;
62435;SDS011;48480;50.252;18.848;2022-10-31T13:31:34;14.90;;;7.00;;
62435;SDS011;48480;50.252;18.848;2022-10-31T13:34:09;14.10;;;7.10;;
62435;SDS011;48480;50.252;18.848;2022-10-31T13:42:45;12.30;;;7.00;;
62435;SDS011;48480;50.252;18.848;2022-10-31T13:45:51;14.70;;;7.60;;
62435;SDS011;48480;50.252;18.848;2022-10-31T13:50:57;15.10;;;7.10;;
62435;SDS011;48480;50.252;18.848;2022-10-31T13:53:37;15.20;;;7.10;;
62435;SDS011;48480;50.252;18.848;2022-10-31T13:56:11;14.50;;;7.10;;
62435;SDS011;48480;50.252;18.848;2022-10-31T13:58:42;14.90;;;6.40;;
62435;SDS011;48480;50.252;18.848;2022-10-31T14:01:24;13.30;;;7.50;;
62435;SDS011;48480;50.252;18.848;2022-10-31T14:09:22;11.60;;;6.30;;
62435;SDS011;48480;50.252;18.848;2022-10-31T14:11:58;12.70;;;6.10;;
62435;SDS011;48480;50.252;18.848;2022-10-31T14:14:32;13.20;;;6.40;;
62435;SDS011;48480;50.252;18.848;2022-10-31T14:17:04;9.80;;;5.70;;
62435;SDS011;48480;50.252;18.848;2022-10-31T14:19:31;13.90;;;6.40;;
62435;SDS011;48480;50.252;18.848;2022-10-31T14:21:56;15.00;;;6.10;;
62435;SDS011;48480;50.252;18.848;2022-10-31T14:26:54;13.40;;;6.00;;
62435;SDS011;48480;50.252;18.848;2022-10-31T14:29:27;15.60;;;5.70;;
62435;SDS011;48480;50.252;18.848;2022-10-31T14:45:18;13.10;;;5.40;;
62435;SDS011;48480;50.252;18.848;2022-10-31T14:53:15;15.10;;;5.80;;
62435;SDS011;48480;50.252;18.848;2022-10-31T14:55:47;12.30;;;6.60;;
62435;SDS011;48480;50.252;18.848;2022-10-31T14:58:22;14.00;;;6.30;;
62435;SDS011;48480;50.252;18.848;2022-10-31T15:00:54;19.60;;;5.80;;
62435;SDS011;48480;50.252;18.848;2022-10-31T15:03:23;14.20;;;6.20;;
62435;SDS011;48480;50.252;18.848;2022-10-31T15:05:55;12.60;;;6.20;;
62435;SDS011;48480;50.252;18.848;2022-10-31T15:13:51;14.50;;;6.00;;
62435;SDS011;48480;50.252;18.848;2022-10-31T15:16:52;12.70;;;6.70;;
62435;SDS011;48480;50.252;18.848;2022-10-31T15:19:12;13.10;;;6.50;;
62435;SDS011;48480;50.252;18.848;2022-10-31T15:21:42;14.90;;;6.70;;
62435;SDS011;48480;50.252;18.848;2022-10-31T15:24:11;16.10;;;6.30;;
62435;SDS011;48480;50.252;18.848;2022-10-31T15:26:44;13.40;;;6.30;;
62435;SDS011;48480;50.252;18.848;2022-10-31T15:29:16;18.80;;;7.50;;
62435;SDS011;48480;50.252;18.848;2022-10-31T15:31:56;14.40;;;7.50;;
62435;SDS011;48480;50.252;18.848;2022-10-31T15:34:40;15.90;;;7.50;;
62435;SDS011;48480;50.252;18.848;2022-10-31T15:37:15;14.50;;;8.40;;
62435;SDS011;48480;50.252;18.848;2022-10-31T15:39:42;15.90;;;8.10;;
62435;SDS011;48480;50.252;18.848;2022-10-31T15:45:04;17.20;;;8.10;;
62435;SDS011;48480;50.252;18.848;2022-10-31T15:47:48;15.30;;;7.70;;
62435;SDS011;48480;50.252;18.848;2022-10-31T15:50:20;16.20;;;7.40;;
62435;SDS011;48480;50.252;18.848;2022-10-31T15:52:59;14.80;;;7.20;;
62435;SDS011;48480;50.252;18.848;2022-10-31T15:55:26;15.10;;;7.40;;
62435;SDS011;48480;50.252;18.848;2022-10-31T15:58:09;18.80;;;7.50;;
62435;SDS011;48480;50.252;18.848;2022-10-31T16:00:37;17.50;;;7.40;;
62435;SDS011;48480;50.252;18.848;2022-10-31T16:03:04;15.10;;;7.30;;
62435;SDS011;48480;50.252;18.848;2022-10-31T16:05:47;13.60;;;7.10;;
62435;SDS011;48480;50.252;18.848;2022-10-31T16:08:26;15.00;;;7.40;;
62435;SDS011;48480;50.252;18.848;2022-10-31T16:11:29;17.90;;;7.80;;
62435;SDS011;48480;50.252;18.848;2022-10-31T16:16:20;19.40;;;8.50;;
62435;SDS011;48480;50.252;18.848;2022-10-31T16:18:46;17.40;;;7.20;;
62435;SDS011;48480;50.252;18.848;2022-10-31T16:21:14;13.30;;;7.00;;
62435;SDS011;48480;50.252;18.848;2022-10-31T16:23:44;18.90;;;7.70;;
62435;SDS011;48480;50.252;18.848;2022-10-31T16:26:13;16.70;;;7.60;;
62435;SDS011;48480;50.252;18.848;2022-10-31T16:28:52;16.30;;;7.50;;
62435;SDS011;48480;50.252;18.848;2022-10-31T16:31:27;16.30;;;7.20;;
62435;SDS011;48480;50.252;18.848;2022-10-31T16:34:05;14.80;;;8.10;;
62435;SDS011;48480;50.252;18.848;2022-10-31T16:36:42;14.30;;;8.30;;
62435;SDS011;48480;50.252;18.848;2022-10-31T16:39:08;17.50;;;8.50;;
62435;SDS011;48480;50.252;18.848;2022-10-31T16:41:41;18.20;;;8.10;;
62435;SDS011;48480;50.252;18.848;2022-10-31T16:44:14;18.00;;;7.90;;
62435;SDS011;48480;50.252;18.848;2022-10-31T16:46:42;22.30;;;9.30;;
62435;SDS011;48480;50.252;18.848;2022-10-31T16:49:11;23.60;;;8.80;;
62435;SDS011;48480;50.252;18.848;2022-10-31T16:51:36;16.60;;;9.40;;
62435;SDS011;48480;50.252;18.848;2022-10-31T16:54:02;17.80;;;10.80;;
62435;SDS011;48480;50.252;18.848;2022-10-31T16:56:29;18.30;;;9.30;;
62435;SDS011;48480;50.252;18.848;2022-10-31T16:58:58;18.60;;;9.00;;
62435;SDS011;48480;50.252;18.848;2022-10-31T17:01:26;20.10;;;9.80;;
62435;SDS011;48480;50.252;18.848;2022-10-31T17:03:52;20.40;;;9.80;;
62435;SDS011;48480;50.252;18.848;2022-10-31T17:06:18;17.50;;;10.10;;
62435;SDS011;48480;50.252;18.848;2022-10-31T17:08:44;23.30;;;10.40;;
62435;SDS011;48480;50.252;18.848;2022-10-31T17:11:13;21.70;;;10.60;;